createdAt,value
2017-10-26T00:00:27.883Z,40.00
2017-10-26T00:03:01.151Z,41.75
2017-10-26T00:05:35.014Z,42.00
2017-10-26T00:08:08.187Z,41.75
2017-10-26T00:10:43.709Z,39.50
2017-10-26T00:13:46.725Z,40.00
2017-10-26T00:16:44.612Z,43.75
2017-10-26T00:19:34.882Z,41.75
2017-10-26T00:22:18.111Z,37.50
2017-10-26T00:24:52.104Z,43.00
2017-10-26T00:27:49.945Z,38.75
2017-10-26T00:30:25.195Z,40.25
2017-10-26T00:32:59.406Z,36.50
2017-10-26T00:35:31.905Z,40.00
2017-10-26T00:38:15.547Z,38.75
2017-10-26T00:40:49.108Z,42.00
2017-10-26T00:43:23.011Z,38.50
2017-10-26T00:45:57.087Z,42.50
2017-10-26T00:48:30.659Z,43.25
2017-10-26T00:51:03.024Z,40.25
2017-10-26T00:53:35.020Z,39.50
2017-10-26T00:59:02.007Z,42.25
2017-10-26T01:01:34.579Z,41.75
2017-10-26T01:09:45.108Z,41.25
2017-10-26T01:12:18.892Z,39.50
2017-10-26T01:14:50.618Z,39.25
2017-10-26T01:20:25.724Z,38.50
2017-10-26T01:29:44.397Z,39.75
2017-10-26T01:32:53.607Z,39.50
2017-10-26T01:35:29.917Z,42.00
2017-10-26T01:38:06.585Z,39.50
2017-10-26T01:40:40.228Z,37.50
2017-10-26T01:43:20.705Z,37.00
2017-10-26T01:46:10.254Z,40.75
2017-10-26T01:48:47.905Z,43.75
2017-10-26T01:54:04.562Z,39.25
2017-10-26T01:56:40.342Z,43.25
2017-10-26T01:59:19.426Z,38.00
2017-10-26T02:01:54.123Z,37.75
2017-10-26T02:04:27.634Z,38.00
2017-10-26T02:07:06.964Z,39.00
2017-10-26T02:09:45.188Z,38.25
2017-10-26T02:12:31.042Z,40.00
2017-10-26T02:18:02.798Z,35.75
2017-10-26T02:20:44.829Z,36.50
2017-10-26T02:23:31.318Z,37.50
2017-10-26T02:26:27.487Z,39.75
2017-10-26T02:32:27.247Z,37.00
2017-10-26T02:38:10.891Z,37.00
2017-10-26T02:41:13.052Z,38.75
2017-10-26T02:43:48.620Z,37.25
2017-10-26T02:46:40.217Z,39.50
2017-10-26T02:49:45.219Z,41.00
2017-10-26T02:52:22.344Z,39.75
2017-10-26T02:55:01.080Z,37.50
2017-10-26T02:57:42.943Z,40.00
2017-10-26T03:00:22.713Z,36.75
2017-10-26T03:03:02.012Z,38.50
2017-10-26T03:05:47.614Z,39.50
2017-10-26T03:08:36.323Z,40.00
2017-10-26T03:11:14.540Z,41.75
2017-10-26T03:14:10.301Z,38.00
2017-10-26T03:16:48.661Z,40.00
2017-10-26T03:19:24.421Z,40.25
2017-10-26T03:21:57.712Z,37.50
2017-10-26T03:24:28.841Z,40.75
2017-10-26T03:27:03.106Z,40.75
2017-10-26T03:29:35.695Z,39.00
2017-10-26T03:32:08.130Z,42.75
2017-10-26T03:34:47.510Z,40.50
2017-10-26T03:37:28.604Z,40.00
2017-10-26T03:40:07.635Z,37.75
2017-10-26T03:42:45.286Z,40.50
2017-10-26T03:45:23.542Z,42.25
2017-10-26T03:48:02.877Z,37.25
2017-10-26T03:50:37.952Z,37.00
2017-10-26T03:53:14.614Z,38.75
2017-10-26T03:58:30.112Z,40.00
2017-10-26T04:01:11.298Z,40.75
2017-10-26T04:03:51.922Z,39.25
2017-10-26T04:06:27.403Z,36.50
2017-10-26T04:09:11.103Z,38.50
2017-10-26T04:11:58.513Z,38.00
2017-10-26T04:14:31.809Z,37.75
2017-10-26T04:17:06.520Z,41.25
2017-10-26T04:19:39.516Z,40.00
2017-10-26T04:22:12.920Z,40.75
2017-10-26T04:24:51.236Z,40.75
2017-10-26T04:27:48.465Z,41.50
2017-10-26T04:30:28.335Z,39.25
2017-10-26T04:33:09.853Z,41.25
2017-10-26T04:35:45.206Z,41.75
2017-10-26T04:38:18.885Z,38.75
2017-10-26T04:40:52.091Z,37.75
2017-10-26T04:43:27.384Z,41.25
2017-10-26T04:46:00.592Z,39.00
2017-10-26T04:48:33.185Z,41.00
2017-10-26T04:51:06.302Z,41.25
2017-10-26T04:53:40.702Z,40.75
2017-10-26T04:56:16.581Z,43.50
2017-10-26T04:58:49.109Z,41.75
2017-10-26T05:01:30.940Z,43.00
2017-10-26T05:04:19.224Z,37.75
2017-10-26T05:06:53.718Z,41.50
2017-10-26T05:09:27.531Z,41.00
2017-10-26T05:12:01.032Z,39.25
2017-10-26T05:20:00.935Z,40.75
2017-10-26T05:22:34.231Z,40.75
2017-10-26T05:28:08.645Z,41.00
2017-10-26T05:30:42.525Z,40.25
2017-10-26T05:33:34.669Z,41.50
2017-10-26T05:36:26.522Z,42.50
2017-10-26T05:39:07.001Z,40.00
2017-10-26T05:41:43.945Z,39.75
2017-10-26T05:44:17.305Z,41.75
2017-10-26T05:54:41.801Z,45.75
2017-10-26T05:57:15.437Z,45.75
2017-10-26T05:59:48.402Z,48.25
2017-10-26T06:02:33.755Z,45.50
2017-10-26T06:05:08.651Z,43.50
2017-10-26T06:07:40.897Z,43.25
2017-10-26T06:13:32.229Z,43.75
2017-10-26T06:16:12.842Z,41.00
2017-10-26T06:24:02.933Z,41.50
2017-10-26T06:26:36.874Z,42.50
2017-10-26T06:29:12.659Z,40.75
2017-10-26T06:31:48.038Z,41.00
2017-10-26T06:34:24.733Z,42.00
2017-10-26T06:37:15.737Z,41.00
2017-10-26T06:39:48.738Z,40.50
2017-10-26T06:42:23.558Z,41.00
2017-10-26T06:45:00.035Z,43.25
2017-10-26T06:47:47.716Z,45.50
2017-10-26T06:50:27.830Z,47.00
2017-10-26T06:53:10.384Z,44.75
2017-10-26T06:55:46.167Z,43.50
2017-10-26T06:58:43.703Z,41.00
2017-10-26T07:01:25.776Z,42.25
2017-10-26T07:04:07.001Z,44.25
2017-10-26T07:06:43.197Z,39.50
2017-10-26T07:09:21.805Z,42.50
2017-10-26T07:11:56.252Z,39.75
2017-10-26T07:14:31.224Z,40.75
2017-10-26T08:02:58.775Z,40.00
2017-10-26T08:05:38.118Z,42.00
2017-10-26T08:08:17.232Z,43.25
2017-10-26T08:10:54.207Z,45.25
2017-10-26T08:13:36.833Z,41.00
2017-10-26T08:16:14.535Z,41.00
2017-10-26T08:19:03.443Z,36.75
2017-10-26T08:21:47.802Z,37.50
2017-10-26T08:24:39.361Z,37.25
2017-10-26T08:27:18.943Z,37.50
2017-10-26T08:29:54.480Z,31.75
2017-10-26T08:32:35.296Z,33.75
2017-10-26T08:35:16.626Z,34.75
2017-10-26T08:38:04.729Z,33.00
2017-10-26T08:40:40.291Z,25.50
2017-10-26T08:43:32.277Z,32.50
2017-10-26T08:46:12.759Z,23.75
2017-10-26T08:51:56.557Z,23.25
2017-10-26T08:54:57.242Z,22.75
2017-10-26T08:57:45.889Z,20.50
2017-10-26T09:00:30.179Z,21.75
2017-10-26T09:03:17.000Z,17.50
2017-10-26T09:06:01.644Z,20.00
2017-10-26T09:08:44.306Z,20.00
2017-10-26T09:11:42.094Z,22.50
2017-10-26T09:14:35.843Z,23.00
2017-10-26T09:17:13.744Z,20.75
2017-10-26T09:19:51.625Z,21.25
2017-10-26T09:22:36.279Z,23.50
2017-10-26T09:25:39.918Z,19.25
2017-10-26T09:28:14.215Z,22.00
2017-10-26T09:30:53.814Z,24.00
2017-10-26T09:33:39.211Z,21.00
2017-10-26T09:36:16.644Z,21.00
2017-10-26T09:38:53.814Z,22.25
2017-10-26T09:41:38.097Z,21.25
2017-10-26T09:48:15.555Z,18.50
2017-10-26T09:51:04.568Z,20.00
2017-10-26T09:53:49.179Z,21.00
2017-10-26T09:59:04.734Z,20.00
2017-10-26T10:01:41.083Z,23.00
2017-10-26T10:04:16.215Z,22.25
2017-10-26T10:07:07.671Z,19.75
2017-10-26T10:09:44.068Z,21.75
2017-10-26T10:12:19.096Z,27.00
2017-10-26T10:17:56.046Z,24.00
2017-10-26T10:20:47.288Z,22.75
2017-10-26T10:26:50.628Z,19.50
2017-10-26T10:29:33.118Z,22.50
2017-10-26T10:32:08.126Z,19.25
2017-10-26T10:35:02.896Z,22.50
2017-10-26T10:37:44.224Z,16.75
2017-10-26T10:40:34.130Z,31.25
2017-10-26T10:46:12.128Z,22.00
2017-10-26T10:49:06.375Z,22.50
2017-10-26T10:51:43.140Z,21.50
2017-10-26T10:54:23.857Z,22.75
2017-10-26T10:57:06.879Z,22.75
2017-10-26T10:59:53.939Z,25.00
2017-10-26T11:08:41.676Z,20.50
2017-10-26T11:11:14.953Z,19.00
2017-10-26T11:13:48.240Z,20.00
2017-10-26T11:16:27.879Z,19.75
2017-10-26T11:22:06.033Z,20.50
2017-10-26T11:24:45.818Z,20.75
2017-10-26T11:30:15.080Z,19.50
2017-10-26T11:35:39.001Z,20.50
2017-10-26T11:38:12.725Z,25.50
2017-10-26T11:40:47.591Z,20.50
2017-10-26T11:43:28.253Z,22.50
2017-10-26T11:49:30.769Z,32.00
2017-10-26T11:52:13.531Z,23.00
2017-10-26T11:54:53.626Z,24.75
2017-10-26T11:57:28.503Z,23.75
2017-10-26T12:00:17.995Z,22.75
2017-10-26T12:02:56.347Z,23.00
2017-10-26T12:05:32.688Z,22.75
2017-10-26T12:08:26.093Z,29.00
2017-10-26T12:11:09.129Z,22.50
2017-10-26T12:15:05.676Z,21.00
2017-10-26T12:17:51.519Z,23.25
2017-10-26T12:20:29.419Z,25.25
2017-10-26T12:23:50.033Z,20.00
2017-10-26T12:27:38.922Z,20.00
2017-10-26T12:30:17.215Z,20.00
2017-10-26T12:45:23.158Z,21.50
2017-10-26T12:48:14.845Z,21.50
2017-10-26T12:50:52.334Z,20.50
2017-10-26T12:53:27.521Z,18.50
2017-10-26T12:58:41.396Z,15.75
2017-10-26T13:01:16.328Z,13.75
2017-10-26T13:03:48.826Z,17.75
2017-10-26T13:06:22.730Z,17.50
2017-10-26T13:08:59.739Z,17.25
2017-10-26T13:11:38.411Z,18.00
2017-10-26T13:14:14.422Z,16.75
2017-10-26T13:16:59.242Z,16.50
2017-10-26T13:19:33.762Z,14.00
2017-10-26T13:22:14.440Z,16.75
2017-10-26T13:25:09.744Z,17.00
2017-10-26T13:27:43.453Z,14.25
2017-10-26T13:30:20.560Z,17.75
2017-10-26T13:33:01.044Z,18.50
2017-10-26T13:35:33.645Z,16.75
2017-10-26T13:38:11.747Z,20.00
2017-10-26T13:40:58.942Z,18.75
2017-10-26T13:43:50.326Z,17.00
2017-10-26T13:46:24.730Z,18.00
2017-10-26T13:49:10.261Z,19.75
2017-10-26T13:51:43.617Z,18.00
2017-10-26T13:54:15.937Z,20.00
2017-10-26T13:57:02.019Z,24.00
2017-10-26T13:59:36.334Z,21.25
2017-10-26T14:02:10.808Z,18.50
2017-10-26T14:04:50.073Z,24.25
2017-10-26T14:08:17.977Z,22.00
2017-10-26T14:10:51.085Z,23.75
2017-10-26T14:13:24.801Z,23.25
2017-10-26T14:15:58.381Z,22.25
2017-10-26T14:18:32.453Z,22.25
2017-10-26T14:21:08.021Z,22.50
2017-10-26T14:23:41.272Z,24.25
2017-10-26T14:26:13.985Z,25.25
2017-10-26T14:28:47.726Z,26.00
2017-10-26T14:31:25.607Z,24.00
2017-10-26T14:33:59.367Z,25.25
2017-10-26T14:36:33.604Z,25.75
2017-10-26T14:39:07.536Z,27.50
2017-10-26T14:41:39.985Z,24.75
2017-10-26T14:44:16.591Z,28.75
2017-10-26T14:46:50.004Z,25.75
2017-10-26T14:52:07.830Z,25.00
2017-10-26T14:54:43.633Z,26.25
2017-10-26T14:57:20.507Z,24.75
2017-10-26T14:59:53.650Z,27.50
2017-10-26T15:02:31.112Z,28.00
2017-10-26T15:09:15.537Z,37.75
2017-10-26T15:11:49.020Z,30.75
2017-10-26T15:14:27.777Z,27.75
2017-10-26T15:17:04.839Z,25.25
2017-10-26T15:19:52.001Z,57.25
2017-10-26T15:22:25.891Z,32.50
2017-10-26T15:25:11.355Z,23.50
2017-10-26T15:27:43.881Z,28.00
2017-10-26T15:30:28.409Z,23.75
2017-10-26T15:36:20.283Z,23.00
2017-10-26T15:38:52.970Z,23.75
2017-10-26T15:41:27.667Z,24.25
2017-10-26T15:44:01.662Z,23.25
2017-10-26T15:46:44.125Z,22.00
2017-10-26T15:49:17.485Z,23.00
2017-10-26T15:51:51.360Z,20.50
2017-10-26T15:54:24.250Z,27.00
2017-10-26T15:56:59.059Z,30.25
2017-10-26T15:59:32.008Z,25.00
2017-10-26T16:02:06.765Z,26.50
2017-10-26T16:04:39.556Z,28.25
2017-10-26T16:07:33.618Z,29.25
2017-10-26T16:10:06.257Z,34.25
2017-10-26T16:12:39.255Z,29.00
2017-10-26T16:15:14.733Z,28.25
2017-10-26T16:17:51.438Z,34.00
2017-10-26T16:20:23.943Z,30.25
2017-10-26T16:22:59.532Z,30.50
2017-10-26T16:25:39.276Z,34.50
2017-10-26T16:28:12.830Z,36.00
2017-10-26T16:33:24.565Z,38.50
2017-10-26T16:35:57.405Z,44.75
2017-10-26T16:38:29.903Z,35.00
2017-10-26T16:41:02.196Z,33.50
2017-10-26T16:43:35.148Z,34.75
2017-10-26T16:46:13.514Z,39.00
2017-10-26T16:48:45.494Z,35.50
2017-10-26T16:51:19.686Z,32.50
2017-10-26T16:53:51.906Z,34.25
2017-10-26T16:56:24.630Z,31.00
2017-10-26T16:58:57.096Z,25.50
2017-10-26T17:01:30.594Z,29.00
2017-10-26T17:04:02.688Z,35.50
2017-10-26T17:06:35.323Z,31.75
2017-10-26T17:09:08.481Z,35.75
2017-10-26T17:11:40.803Z,35.50
2017-10-26T17:14:12.974Z,40.75
2017-10-26T17:16:45.564Z,39.75
2017-10-26T17:22:08.413Z,35.50
2017-10-26T17:24:40.596Z,37.50
2017-10-26T17:27:13.195Z,35.75
2017-10-26T17:29:46.676Z,38.75
2017-10-26T17:32:21.015Z,41.50
2017-10-26T17:34:56.044Z,46.75
2017-10-26T17:37:28.029Z,49.75
2017-10-26T17:40:01.804Z,42.25
2017-10-26T17:42:34.423Z,43.00
2017-10-26T17:45:21.825Z,42.25
2017-10-26T17:48:12.818Z,38.00
2017-10-26T17:50:44.970Z,42.00
2017-10-26T17:53:36.761Z,39.50
2017-10-26T18:09:07.557Z,37.25
2017-10-26T18:11:49.168Z,38.75
2017-10-26T18:14:22.969Z,40.75
2017-10-26T18:16:57.063Z,32.75
2017-10-26T18:19:44.541Z,39.00
2017-10-26T18:22:32.466Z,34.25
2017-10-26T18:25:05.018Z,38.75
2017-10-26T18:27:38.735Z,39.25
2017-10-26T18:30:20.566Z,36.75
2017-10-26T18:32:52.557Z,34.00
2017-10-26T18:35:30.083Z,30.25
2017-10-26T18:38:03.060Z,27.75
2017-10-26T18:40:35.161Z,22.00
2017-10-26T18:43:07.659Z,22.50
2017-10-26T18:45:58.208Z,25.00
2017-10-26T18:48:48.579Z,21.75
2017-10-26T18:51:22.285Z,27.75
2017-10-26T18:53:55.150Z,24.25
2017-10-26T18:56:29.360Z,24.75
2017-10-26T18:59:03.274Z,29.75
2017-10-26T19:01:37.354Z,30.25
2017-10-26T19:04:11.614Z,24.50
2017-10-26T19:06:44.995Z,35.00
2017-10-26T19:09:19.815Z,32.00
2017-10-26T19:11:52.584Z,32.00
2017-10-26T19:14:27.659Z,35.25
2017-10-26T19:17:03.071Z,32.00
2017-10-26T19:19:36.854Z,29.75
2017-10-26T19:22:11.183Z,34.50
2017-10-26T19:24:43.791Z,36.75
2017-10-26T19:27:21.908Z,35.75
2017-10-26T19:29:54.879Z,35.00
2017-10-26T19:32:45.515Z,37.00
2017-10-26T19:38:41.785Z,35.25
2017-10-26T19:41:14.965Z,36.75
2017-10-26T19:43:49.199Z,31.50
2017-10-26T19:49:02.847Z,29.50
2017-10-26T19:51:35.483Z,28.50
2017-10-26T19:54:08.756Z,26.25
2017-10-26T19:56:43.450Z,29.50
2017-10-26T19:59:47.754Z,32.00
2017-10-26T20:02:22.457Z,34.00
2017-10-26T20:04:56.710Z,36.50
2017-10-26T20:07:34.417Z,31.75
2017-10-26T20:10:09.664Z,32.50
2017-10-26T20:12:41.893Z,34.00
2017-10-26T20:15:20.695Z,32.50
2017-10-26T20:18:06.151Z,36.25
2017-10-26T20:21:32.452Z,35.00
2017-10-26T20:24:07.898Z,33.50
2017-10-26T20:26:50.405Z,32.00
2017-10-26T20:29:26.018Z,36.50
2017-10-26T20:32:07.533Z,36.50
2017-10-26T20:34:41.946Z,39.00
2017-10-26T20:37:14.635Z,31.00
2017-10-26T20:39:47.622Z,38.50
2017-10-26T20:42:22.448Z,38.25
2017-10-26T20:44:57.786Z,37.25
2017-10-26T20:47:32.234Z,38.00
2017-10-26T20:50:18.160Z,35.25
2017-10-26T20:55:02.704Z,40.00
2017-10-26T20:59:48.222Z,37.00
2017-10-26T21:04:27.017Z,34.75
2017-10-26T21:07:13.399Z,32.25
2017-10-26T21:09:50.609Z,33.25
2017-10-26T21:13:31.219Z,32.25
2017-10-26T21:16:14.334Z,29.25
2017-10-26T21:18:49.042Z,25.00
2017-10-26T21:21:25.661Z,25.25
2017-10-26T21:23:58.835Z,22.00
2017-10-26T21:26:31.292Z,23.00
2017-10-26T21:29:42.855Z,26.50
2017-10-26T21:32:48.943Z,24.25
2017-10-26T21:35:26.724Z,23.50
2017-10-26T21:37:58.948Z,23.25
2017-10-26T21:40:47.446Z,21.25
2017-10-26T21:43:40.910Z,22.00
2017-10-26T21:46:18.244Z,22.00
2017-10-26T21:48:51.556Z,24.00
2017-10-26T21:51:27.143Z,19.25
2017-10-26T21:54:03.053Z,25.00
2017-10-26T21:56:35.770Z,18.00
2017-10-26T21:59:09.359Z,21.50
2017-10-26T22:01:42.877Z,22.25
2017-10-26T22:04:17.061Z,19.75
2017-10-26T22:06:51.336Z,24.00
2017-10-26T22:09:33.308Z,17.75
2017-10-26T22:12:07.513Z,19.00
2017-10-26T22:14:41.314Z,22.75
2017-10-26T22:17:15.142Z,23.25
2017-10-26T22:19:56.973Z,21.50
2017-10-26T22:22:30.153Z,25.25
2017-10-26T22:25:03.957Z,20.50
2017-10-26T22:27:37.663Z,21.75
2017-10-26T22:30:13.655Z,22.50
2017-10-26T22:32:47.468Z,19.50
2017-10-26T22:36:07.839Z,22.00
2017-10-26T22:38:40.994Z,20.50
2017-10-26T22:41:14.817Z,20.25
2017-10-26T22:43:46.842Z,23.00
2017-10-26T22:46:29.185Z,21.25
2017-10-26T22:49:02.641Z,24.25
2017-10-26T22:51:34.931Z,25.50
2017-10-26T22:54:08.078Z,22.75
2017-10-26T22:56:40.920Z,23.50
2017-10-26T22:59:14.165Z,26.00
2017-10-26T23:01:46.231Z,27.25
2017-10-26T23:04:19.525Z,27.25
2017-10-26T23:06:52.607Z,23.50
2017-10-26T23:09:27.935Z,28.00
2017-10-26T23:12:00.104Z,25.75
2017-10-26T23:14:32.533Z,28.50
2017-10-26T23:17:05.763Z,33.50
2017-10-26T23:19:39.036Z,29.75
2017-10-26T23:22:12.266Z,24.25
2017-10-26T23:24:45.114Z,26.50
2017-10-26T23:27:24.262Z,30.50
2017-10-26T23:29:57.262Z,29.00
2017-10-26T23:32:29.530Z,25.75
2017-10-26T23:35:02.345Z,26.25
2017-10-26T23:37:34.735Z,29.25
2017-10-26T23:42:46.754Z,30.25
2017-10-26T23:45:21.364Z,29.25
2017-10-26T23:47:53.339Z,29.50
2017-10-26T23:50:26.154Z,33.25
2017-10-26T23:53:01.952Z,34.00
2017-10-26T23:55:34.565Z,36.50
2017-10-26T23:58:07.057Z,35.25
